createdAt,value
2023-01-13T00:01:48.209Z,99463.91
2023-01-13T00:07:08.995Z,99467.38
2023-01-13T00:12:30.215Z,99470.13
2023-01-13T00:17:51.252Z,99469.28
2023-01-13T00:23:12.306Z,99475.25
2023-01-13T00:28:33.485Z,99478.91
2023-01-13T00:34:00.986Z,99477.47
2023-01-13T00:39:22.002Z,99475.28
2023-01-13T00:44:43.038Z,99477.84
2023-01-13T00:50:03.896Z,99471.19
2023-01-13T00:55:24.770Z,99466.25
2023-01-13T01:00:46.112Z,99459.59
2023-01-13T01:06:16.578Z,99468.03
2023-01-13T01:11:38.123Z,99470.41
2023-01-13T01:16:58.979Z,99460.78
2023-01-13T01:22:20.122Z,99467.50
2023-01-13T01:27:40.920Z,99466.69
2023-01-13T01:33:03.407Z,99475.22
2023-01-13T01:38:24.281Z,99466.81
2023-01-13T01:44:04.355Z,99432.88
2023-01-13T01:49:34.007Z,99430.41
2023-01-13T01:55:03.663Z,99439.81
2023-01-13T02:00:27.172Z,99448.31
2023-01-13T02:05:47.883Z,99434.91
2023-01-13T02:11:46.538Z,99443.28
2023-01-13T02:17:36.831Z,99446.69
2023-01-13T02:23:41.793Z,99443.28
2023-01-13T02:29:43.674Z,99437.31
2023-01-13T02:35:12.672Z,99437.50
2023-01-13T02:40:40.361Z,99432.28
2023-01-13T02:46:49.732Z,99423.75
2023-01-13T02:52:17.800Z,99405.69
2023-01-13T02:57:41.173Z,99421.72
2023-01-13T03:03:02.417Z,99384.91
2023-01-13T03:08:43.213Z,99413.03
2023-01-13T03:14:20.927Z,99411.75
2023-01-13T03:19:53.533Z,99418.59
2023-01-13T03:25:22.790Z,99419.41
2023-01-13T03:30:50.021Z,99414.09
2023-01-13T03:36:15.000Z,99387.44
2023-01-13T03:41:48.877Z,99392.22
2023-01-13T03:47:52.347Z,99407.91
2023-01-13T03:53:22.899Z,99380.84
2023-01-13T03:58:48.184Z,99369.84
2023-01-13T04:04:32.330Z,99356.22
2023-01-13T04:09:56.443Z,99365.53
2023-01-13T04:15:27.985Z,99368.81
2023-01-13T04:20:50.510Z,99364.34
2023-01-13T04:26:11.273Z,99363.41
2023-01-13T04:39:03.994Z,99355.38
2023-01-13T04:44:24.377Z,99359.56
2023-01-13T04:49:45.280Z,99362.75
2023-01-13T04:55:07.083Z,99340.56
2023-01-13T05:00:27.510Z,99319.50
2023-01-13T05:05:51.479Z,99306.25
2023-01-13T05:11:30.952Z,99310.38
2023-01-13T05:17:00.404Z,99316.53
2023-01-13T05:22:39.499Z,99327.50
2023-01-13T05:28:00.693Z,99321.59
2023-01-13T05:33:21.193Z,99307.59
2023-01-13T05:38:42.209Z,99292.72
2023-01-13T05:44:02.737Z,99291.09
2023-01-13T05:49:23.749Z,99293.47
2023-01-13T05:54:44.239Z,99299.28
2023-01-13T06:00:05.612Z,99278.97
2023-01-13T06:05:33.374Z,99293.53
2023-01-13T06:10:54.023Z,99301.28
2023-01-13T06:16:14.573Z,99300.88
2023-01-13T06:21:35.656Z,99294.53
2023-01-13T06:26:56.858Z,99280.34
2023-01-13T06:32:21.607Z,99271.16
2023-01-13T06:37:45.110Z,99286.19
2023-01-13T06:43:17.919Z,99304.09
2023-01-13T06:48:38.367Z,99267.94
2023-01-13T06:53:59.151Z,99276.44
2023-01-13T06:59:19.595Z,99278.56
2023-01-13T07:04:40.314Z,99272.28
2023-01-13T07:10:00.853Z,99260.34
2023-01-13T07:15:21.772Z,99262.84
2023-01-13T07:20:42.352Z,99257.69
2023-01-13T07:26:03.093Z,99252.41
2023-01-13T07:31:23.786Z,99228.38
2023-01-13T07:36:44.212Z,99245.19
2023-01-13T07:42:23.283Z,99245.28
2023-01-13T07:47:43.857Z,99247.88
2023-01-13T07:53:04.819Z,99247.22
2023-01-13T07:58:26.196Z,99262.44
2023-01-13T08:03:46.964Z,99239.44
2023-01-13T08:09:08.505Z,99252.03
2023-01-13T08:14:29.369Z,99250.25
2023-01-13T08:19:50.100Z,99238.88
2023-01-13T08:25:10.897Z,99233.66
2023-01-13T08:30:31.848Z,99236.19
2023-01-13T08:35:53.244Z,99240.34
2023-01-13T08:41:36.271Z,99226.72
2023-01-13T08:46:57.395Z,99235.03
2023-01-13T08:52:17.802Z,99224.69
2023-01-13T08:57:38.334Z,99230.72
2023-01-13T09:02:58.928Z,99235.94
2023-01-13T09:08:24.274Z,99249.66
2023-01-13T09:13:46.061Z,99236.19
2023-01-13T09:19:06.821Z,99235.97
2023-01-13T09:24:27.439Z,99243.63
2023-01-13T09:29:48.065Z,99229.28
2023-01-13T09:35:09.478Z,99240.19
2023-01-13T09:40:30.173Z,99221.41
2023-01-13T09:46:02.067Z,99226.66
2023-01-13T09:51:31.757Z,99213.91
2023-01-13T09:56:53.119Z,99220.53
2023-01-13T10:02:19.373Z,99225.00
2023-01-13T10:07:49.553Z,99206.66
2023-01-13T10:13:20.535Z,99212.75
2023-01-13T10:19:02.998Z,99204.66
2023-01-13T10:24:45.856Z,99194.47
2023-01-13T10:30:25.995Z,99217.47
2023-01-13T10:35:52.732Z,99182.63
2023-01-13T10:41:18.064Z,99197.72
2023-01-13T10:46:53.471Z,99174.00
2023-01-13T10:52:30.599Z,99179.56
2023-01-13T10:57:51.078Z,99171.59
2023-01-13T11:03:17.789Z,99177.28
2023-01-13T11:08:45.871Z,99174.50
2023-01-13T11:14:36.930Z,99177.88
2023-01-13T11:20:05.166Z,99189.34
2023-01-13T11:25:33.821Z,99195.78
2023-01-13T11:31:14.537Z,99197.56
2023-01-13T11:36:40.155Z,99206.25
2023-01-13T11:42:21.804Z,99181.63
2023-01-13T11:47:46.889Z,99183.50
2023-01-13T11:53:22.555Z,99200.09
2023-01-13T11:59:00.899Z,99186.34
2023-01-13T12:04:29.428Z,99191.41
2023-01-13T12:10:13.653Z,99218.81
2023-01-13T12:16:02.130Z,99202.69
2023-01-13T12:21:54.686Z,99216.03
2023-01-13T12:27:23.719Z,99217.06
2023-01-13T12:32:45.609Z,99214.19
2023-01-13T12:38:24.251Z,99202.94
2023-01-13T12:44:07.137Z,99209.88
2023-01-13T12:49:35.216Z,99220.00
2023-01-13T12:54:55.556Z,99255.66
2023-01-13T13:00:16.923Z,99221.56
2023-01-13T13:06:07.769Z,99252.84
2023-01-13T13:11:56.444Z,99267.78
2023-01-13T13:17:19.606Z,99248.94
2023-01-13T13:22:49.977Z,99277.38
2023-01-13T13:28:18.245Z,99288.16
2023-01-13T13:33:58.464Z,99296.91
2023-01-13T13:39:43.105Z,99292.75
2023-01-13T13:45:40.052Z,99293.94
2023-01-13T13:51:04.698Z,99273.38
2023-01-13T13:56:29.051Z,99316.28
2023-01-13T14:02:00.730Z,99308.56
2023-01-13T14:07:21.914Z,99299.63
2023-01-13T14:12:42.399Z,99342.13
2023-01-13T14:18:06.337Z,99330.38
2023-01-13T14:23:30.221Z,99328.31
2023-01-13T14:28:51.099Z,99322.66
2023-01-13T14:34:31.751Z,99333.94
2023-01-13T14:39:54.049Z,99344.00
2023-01-13T14:45:24.445Z,99348.28
2023-01-13T14:50:46.685Z,99361.53
2023-01-13T14:56:36.435Z,99358.34
2023-01-13T15:01:57.311Z,99362.84
2023-01-13T15:07:25.565Z,99372.28
2023-01-13T15:12:49.228Z,99371.31
2023-01-13T15:18:17.343Z,99397.75
2023-01-13T15:23:41.056Z,99396.38
2023-01-13T15:29:05.517Z,99393.28
2023-01-13T15:34:26.232Z,99379.81
2023-01-13T15:39:46.756Z,99411.16
2023-01-13T15:45:27.918Z,99422.69
2023-01-13T15:50:48.378Z,99419.16
2023-01-13T15:56:18.797Z,99422.47
2023-01-13T16:01:39.165Z,99435.81
2023-01-13T16:06:59.594Z,99438.59
2023-01-13T16:12:20.466Z,99464.19
2023-01-13T16:17:42.277Z,99444.00
2023-01-13T16:23:02.807Z,99473.97
2023-01-13T16:28:28.085Z,99503.88
2023-01-13T16:33:48.620Z,99503.63
2023-01-13T16:39:20.972Z,99478.81
2023-01-13T16:44:41.377Z,99509.00
2023-01-13T16:50:02.955Z,99486.94
2023-01-13T16:55:23.519Z,99518.69
2023-01-13T17:00:48.050Z,99453.22
2023-01-13T17:06:11.050Z,99534.53
2023-01-13T17:11:32.110Z,99535.44
2023-01-13T17:16:55.445Z,99545.59
2023-01-13T17:22:15.901Z,99562.50
2023-01-13T17:27:36.360Z,99582.91
2023-01-13T17:32:56.882Z,99571.84
2023-01-13T17:38:17.732Z,99591.31
2023-01-13T17:43:38.306Z,99539.69
2023-01-13T17:48:58.735Z,99617.16
2023-01-13T17:54:19.525Z,99614.44
2023-01-13T17:59:41.436Z,99629.47
2023-01-13T18:05:01.993Z,99642.91
2023-01-13T18:10:23.130Z,99629.16
2023-01-13T18:15:43.648Z,99665.50
2023-01-13T18:21:23.436Z,99670.78
2023-01-13T18:27:04.764Z,99693.81
2023-01-13T18:32:31.465Z,99704.84
2023-01-13T18:37:53.174Z,99720.22
2023-01-13T18:43:14.491Z,99708.25
2023-01-13T18:48:35.416Z,99710.75
2023-01-13T18:53:56.003Z,99754.31
2023-01-13T18:59:17.563Z,99769.03
2023-01-13T19:04:38.958Z,99785.25
2023-01-13T19:10:00.472Z,99792.28
2023-01-13T19:15:21.012Z,99822.31
2023-01-13T19:20:41.971Z,99852.94
2023-01-13T19:26:05.958Z,99850.22
2023-01-13T19:31:26.488Z,99888.34
2023-01-13T19:36:47.079Z,99868.56
2023-01-13T19:42:26.723Z,99904.25
2023-01-13T19:47:47.140Z,99925.25
2023-01-13T19:53:15.984Z,99914.13
2023-01-13T19:58:36.797Z,99962.53
2023-01-13T20:04:03.097Z,99954.94
2023-01-13T20:09:23.583Z,99984.72
2023-01-13T20:14:45.153Z,99999.09
2023-01-13T20:20:06.668Z,100007.63
2023-01-13T20:25:31.038Z,100013.59
2023-01-13T20:30:53.281Z,100045.81
2023-01-13T20:36:26.368Z,100039.91
2023-01-13T20:42:05.824Z,100060.31
2023-01-13T20:47:28.033Z,100060.38
2023-01-13T20:52:48.650Z,100064.53
2023-01-13T20:58:09.231Z,100124.94
2023-01-13T21:03:30.052Z,100143.63
2023-01-13T21:08:54.130Z,100132.50
2023-01-13T21:14:33.280Z,100142.88
2023-01-13T21:19:53.715Z,100163.28
2023-01-13T21:25:15.714Z,100165.75
2023-01-13T21:30:38.814Z,100184.47
2023-01-13T21:36:08.090Z,100167.66
2023-01-13T21:41:47.616Z,100189.78
2023-01-13T21:47:37.588Z,100250.16
2023-01-13T21:52:58.844Z,100247.53
2023-01-13T21:58:19.260Z,100272.06
2023-01-13T22:03:59.030Z,100275.50
2023-01-13T22:09:19.639Z,100289.09
2023-01-13T22:14:40.144Z,100289.00
2023-01-13T22:20:01.361Z,100274.56
2023-01-13T22:25:21.696Z,100301.91
2023-01-13T22:30:42.437Z,100321.50
2023-01-13T22:36:03.130Z,100341.06
2023-01-13T22:41:23.928Z,100357.22
2023-01-13T22:46:44.662Z,100347.00
2023-01-13T22:52:05.826Z,100381.75
2023-01-13T22:57:36.043Z,100388.63
2023-01-13T23:02:59.333Z,100396.34
2023-01-13T23:08:19.861Z,100398.94
2023-01-13T23:13:43.155Z,100398.13
2023-01-13T23:19:05.796Z,100402.25
2023-01-13T23:24:27.875Z,100420.84
2023-01-13T23:29:49.030Z,100414.97
2023-01-13T23:35:09.900Z,100419.19
2023-01-13T23:40:30.704Z,100421.81
2023-01-13T23:45:51.656Z,100438.06
2023-01-13T23:51:13.433Z,100445.69
2023-01-13T23:56:35.041Z,100435.50
